sensor_id;sensor_type;location;lat;lon;timestamp;P1;durP1;ratioP1;P2;durP2;ratioP2
20381;SDS011;10350;51.280;12.400;2023-12-20T00:01:37;30.13;;;28.40;;
20381;SDS011;10350;51.280;12.400;2023-12-20T00:04:03;28.95;;;27.27;;
20381;SDS011;10350;51.280;12.400;2023-12-20T00:06:32;27.38;;;25.77;;
20381;SDS011;10350;51.280;12.400;2023-12-20T00:08:59;26.67;;;25.15;;
20381;SDS011;10350;51.280;12.400;2023-12-20T00:11:25;29.17;;;27.48;;
20381;SDS011;10350;51.280;12.400;2023-12-20T00:13:51;26.98;;;25.52;;
20381;SDS011;10350;51.280;12.400;2023-12-20T00:16:17;27.92;;;26.33;;
20381;SDS011;10350;51.280;12.400;2023-12-20T00:18:44;27.63;;;26.05;;
20381;SDS011;10350;51.280;12.400;2023-12-20T00:21:09;28.65;;;27.10;;
20381;SDS011;10350;51.280;12.400;2023-12-20T00:23:38;26.98;;;25.38;;
20381;SDS011;10350;51.280;12.400;2023-12-20T00:26:04;27.58;;;26.08;;
20381;SDS011;10350;51.280;12.400;2023-12-20T00:28:30;28.67;;;27.17;;
20381;SDS011;10350;51.280;12.400;2023-12-20T00:30:56;27.45;;;26.02;;
20381;SDS011;10350;51.280;12.400;2023-12-20T00:33:22;28.17;;;26.63;;
20381;SDS011;10350;51.280;12.400;2023-12-20T00:35:48;27.63;;;25.98;;
20381;SDS011;10350;51.280;12.400;2023-12-20T00:38:14;27.50;;;26.02;;
20381;SDS011;10350;51.280;12.400;2023-12-20T00:40:40;27.48;;;25.98;;
20381;SDS011;10350;51.280;12.400;2023-12-20T00:43:06;27.10;;;25.60;;
20381;SDS011;10350;51.280;12.400;2023-12-20T00:45:32;27.92;;;26.35;;
20381;SDS011;10350;51.280;12.400;2023-12-20T00:47:58;25.38;;;23.98;;
20381;SDS011;10350;51.280;12.400;2023-12-20T00:50:24;27.90;;;26.50;;
20381;SDS011;10350;51.280;12.400;2023-12-20T00:52:50;27.45;;;25.90;;
20381;SDS011;10350;51.280;12.400;2023-12-20T00:55:20;26.35;;;24.95;;
20381;SDS011;10350;51.280;12.400;2023-12-20T00:57:45;26.48;;;25.08;;
20381;SDS011;10350;51.280;12.400;2023-12-20T01:00:12;26.05;;;24.67;;
20381;SDS011;10350;51.280;12.400;2023-12-20T01:02:38;27.73;;;26.30;;
20381;SDS011;10350;51.280;12.400;2023-12-20T01:05:04;26.02;;;24.73;;
20381;SDS011;10350;51.280;12.400;2023-12-20T01:07:30;27.13;;;25.73;;
20381;SDS011;10350;51.280;12.400;2023-12-20T01:09:56;28.23;;;26.83;;
20381;SDS011;10350;51.280;12.400;2023-12-20T01:12:22;28.15;;;26.65;;
20381;SDS011;10350;51.280;12.400;2023-12-20T01:14:48;27.40;;;26.00;;
20381;SDS011;10350;51.280;12.400;2023-12-20T01:17:13;26.30;;;24.90;;
20381;SDS011;10350;51.280;12.400;2023-12-20T01:19:39;27.92;;;26.42;;
20381;SDS011;10350;51.280;12.400;2023-12-20T01:22:05;25.80;;;24.42;;
20381;SDS011;10350;51.280;12.400;2023-12-20T01:24:36;26.60;;;25.25;;
20381;SDS011;10350;51.280;12.400;2023-12-20T01:27:02;27.23;;;25.80;;
20381;SDS011;10350;51.280;12.400;2023-12-20T01:29:28;28.55;;;27.08;;
20381;SDS011;10350;51.280;12.400;2023-12-20T01:31:54;26.02;;;24.63;;
20381;SDS011;10350;51.280;12.400;2023-12-20T01:34:20;26.67;;;25.27;;
20381;SDS011;10350;51.280;12.400;2023-12-20T01:36:46;26.73;;;25.38;;
20381;SDS011;10350;51.280;12.400;2023-12-20T01:39:12;28.25;;;26.73;;
20381;SDS011;10350;51.280;12.400;2023-12-20T01:41:38;28.63;;;27.13;;
20381;SDS011;10350;51.280;12.400;2023-12-20T01:44:05;27.52;;;26.13;;
20381;SDS011;10350;51.280;12.400;2023-12-20T01:46:31;25.98;;;24.60;;
20381;SDS011;10350;51.280;12.400;2023-12-20T01:48:57;28.73;;;27.23;;
20381;SDS011;10350;51.280;12.400;2023-12-20T01:51:23;25.10;;;23.80;;
20381;SDS011;10350;51.280;12.400;2023-12-20T01:53:49;27.08;;;25.67;;
20381;SDS011;10350;51.280;12.400;2023-12-20T01:56:15;28.35;;;26.92;;
20381;SDS011;10350;51.280;12.400;2023-12-20T01:58:43;27.88;;;26.38;;
20381;SDS011;10350;51.280;12.400;2023-12-20T02:01:10;26.88;;;25.48;;
20381;SDS011;10350;51.280;12.400;2023-12-20T02:03:36;27.27;;;25.88;;
20381;SDS011;10350;51.280;12.400;2023-12-20T02:06:02;25.55;;;24.15;;
20381;SDS011;10350;51.280;12.400;2023-12-20T02:08:28;29.17;;;27.50;;
20381;SDS011;10350;51.280;12.400;2023-12-20T02:10:55;25.85;;;24.55;;
20381;SDS011;10350;51.280;12.400;2023-12-20T02:13:21;26.48;;;25.13;;
20381;SDS011;10350;51.280;12.400;2023-12-20T02:15:47;26.95;;;25.48;;
20381;SDS011;10350;51.280;12.400;2023-12-20T02:18:14;26.50;;;25.13;;
20381;SDS011;10350;51.280;12.400;2023-12-20T02:20:41;26.88;;;25.48;;
20381;SDS011;10350;51.280;12.400;2023-12-20T02:23:07;26.63;;;25.23;;
20381;SDS011;10350;51.280;12.400;2023-12-20T02:25:33;26.10;;;24.60;;
20381;SDS011;10350;51.280;12.400;2023-12-20T02:27:59;26.40;;;25.00;;
20381;SDS011;10350;51.280;12.400;2023-12-20T02:30:25;26.95;;;25.55;;
20381;SDS011;10350;51.280;12.400;2023-12-20T02:32:51;27.35;;;25.88;;
20381;SDS011;10350;51.280;12.400;2023-12-20T02:35:18;25.90;;;24.58;;
20381;SDS011;10350;51.280;12.400;2023-12-20T02:37:43;27.45;;;26.05;;
20381;SDS011;10350;51.280;12.400;2023-12-20T02:40:09;27.38;;;25.98;;
20381;SDS011;10350;51.280;12.400;2023-12-20T02:42:35;26.08;;;24.77;;
20381;SDS011;10350;51.280;12.400;2023-12-20T02:45:01;27.30;;;25.88;;
20381;SDS011;10350;51.280;12.400;2023-12-20T02:47:27;27.65;;;26.25;;
20381;SDS011;10350;51.280;12.400;2023-12-20T02:49:54;26.67;;;25.25;;
20381;SDS011;10350;51.280;12.400;2023-12-20T02:52:21;26.98;;;25.58;;
20381;SDS011;10350;51.280;12.400;2023-12-20T02:54:47;27.70;;;26.30;;
20381;SDS011;10350;51.280;12.400;2023-12-20T02:57:13;25.20;;;23.90;;
20381;SDS011;10350;51.280;12.400;2023-12-20T02:59:39;27.63;;;26.13;;
20381;SDS011;10350;51.280;12.400;2023-12-20T03:02:05;25.50;;;24.20;;
20381;SDS011;10350;51.280;12.400;2023-12-20T03:04:31;25.55;;;24.25;;
20381;SDS011;10350;51.280;12.400;2023-12-20T03:06:57;26.50;;;25.15;;
20381;SDS011;10350;51.280;12.400;2023-12-20T03:09:22;26.77;;;25.38;;
20381;SDS011;10350;51.280;12.400;2023-12-20T03:11:48;27.70;;;26.30;;
20381;SDS011;10350;51.280;12.400;2023-12-20T03:14:14;27.42;;;26.02;;
20381;SDS011;10350;51.280;12.400;2023-12-20T03:16:40;27.50;;;26.08;;
20381;SDS011;10350;51.280;12.400;2023-12-20T03:19:06;29.27;;;27.77;;
20381;SDS011;10350;51.280;12.400;2023-12-20T03:21:33;27.13;;;25.73;;
20381;SDS011;10350;51.280;12.400;2023-12-20T03:23:59;27.20;;;25.80;;
20381;SDS011;10350;51.280;12.400;2023-12-20T03:26:25;28.83;;;27.33;;
20381;SDS011;10350;51.280;12.400;2023-12-20T03:28:51;27.15;;;25.67;;
20381;SDS011;10350;51.280;12.400;2023-12-20T03:31:17;27.38;;;25.98;;
20381;SDS011;10350;51.280;12.400;2023-12-20T03:33:43;27.27;;;25.85;;
20381;SDS011;10350;51.280;12.400;2023-12-20T03:36:09;27.17;;;25.77;;
20381;SDS011;10350;51.280;12.400;2023-12-20T03:38:34;26.38;;;24.98;;
20381;SDS011;10350;51.280;12.400;2023-12-20T03:41:00;27.90;;;26.40;;
20381;SDS011;10350;51.280;12.400;2023-12-20T03:43:26;26.40;;;25.10;;
20381;SDS011;10350;51.280;12.400;2023-12-20T03:45:52;29.13;;;27.63;;
20381;SDS011;10350;51.280;12.400;2023-12-20T03:48:18;29.40;;;27.90;;
20381;SDS011;10350;51.280;12.400;2023-12-20T03:50:45;27.75;;;26.35;;
20381;SDS011;10350;51.280;12.400;2023-12-20T03:53:11;27.23;;;25.77;;
20381;SDS011;10350;51.280;12.400;2023-12-20T03:55:37;27.45;;;25.95;;
20381;SDS011;10350;51.280;12.400;2023-12-20T03:58:03;26.52;;;25.13;;
20381;SDS011;10350;51.280;12.400;2023-12-20T04:00:32;25.92;;;24.63;;
20381;SDS011;10350;51.280;12.400;2023-12-20T04:02:58;27.25;;;25.75;;
20381;SDS011;10350;51.280;12.400;2023-12-20T04:05:24;26.58;;;25.17;;
20381;SDS011;10350;51.280;12.400;2023-12-20T04:07:50;26.60;;;25.20;;
20381;SDS011;10350;51.280;12.400;2023-12-20T04:10:15;26.75;;;25.35;;
20381;SDS011;10350;51.280;12.400;2023-12-20T04:12:41;29.77;;;28.23;;
20381;SDS011;10350;51.280;12.400;2023-12-20T04:15:07;27.23;;;25.80;;
20381;SDS011;10350;51.280;12.400;2023-12-20T04:17:35;26.35;;;24.95;;
20381;SDS011;10350;51.280;12.400;2023-12-20T04:20:01;27.00;;;25.60;;
20381;SDS011;10350;51.280;12.400;2023-12-20T04:22:27;27.70;;;25.77;;
20381;SDS011;10350;51.280;12.400;2023-12-20T04:24:53;26.92;;;25.50;;
20381;SDS011;10350;51.280;12.400;2023-12-20T04:27:19;26.75;;;25.25;;
20381;SDS011;10350;51.280;12.400;2023-12-20T04:29:46;27.85;;;26.35;;
20381;SDS011;10350;51.280;12.400;2023-12-20T04:32:12;27.60;;;26.20;;
20381;SDS011;10350;51.280;12.400;2023-12-20T04:34:38;28.05;;;26.55;;
20381;SDS011;10350;51.280;12.400;2023-12-20T04:37:04;26.02;;;24.63;;
20381;SDS011;10350;51.280;12.400;2023-12-20T04:39:30;28.73;;;27.23;;
20381;SDS011;10350;51.280;12.400;2023-12-20T04:41:56;27.23;;;25.83;;
20381;SDS011;10350;51.280;12.400;2023-12-20T04:44:22;26.80;;;25.20;;
20381;SDS011;10350;51.280;12.400;2023-12-20T04:46:48;27.58;;;26.10;;
20381;SDS011;10350;51.280;12.400;2023-12-20T04:49:14;28.48;;;26.90;;
20381;SDS011;10350;51.280;12.400;2023-12-20T04:51:40;27.15;;;25.65;;
20381;SDS011;10350;51.280;12.400;2023-12-20T04:54:06;30.15;;;28.55;;
20381;SDS011;10350;51.280;12.400;2023-12-20T04:56:32;26.85;;;25.35;;
20381;SDS011;10350;51.280;12.400;2023-12-20T04:59:04;28.35;;;25.98;;
20381;SDS011;10350;51.280;12.400;2023-12-20T05:01:30;28.10;;;26.55;;
20381;SDS011;10350;51.280;12.400;2023-12-20T05:03:56;26.90;;;25.40;;
20381;SDS011;10350;51.280;12.400;2023-12-20T05:06:22;28.75;;;27.15;;
20381;SDS011;10350;51.280;12.400;2023-12-20T05:08:48;28.60;;;27.08;;
20381;SDS011;10350;51.280;12.400;2023-12-20T05:11:14;27.98;;;26.48;;
20381;SDS011;10350;51.280;12.400;2023-12-20T05:13:40;26.77;;;25.38;;
20381;SDS011;10350;51.280;12.400;2023-12-20T05:16:07;29.50;;;27.90;;
20381;SDS011;10350;51.280;12.400;2023-12-20T05:18:34;28.25;;;26.65;;
20381;SDS011;10350;51.280;12.400;2023-12-20T05:20:59;27.55;;;26.05;;
20381;SDS011;10350;51.280;12.400;2023-12-20T05:23:31;27.40;;;25.95;;
20381;SDS011;10350;51.280;12.400;2023-12-20T05:25:57;28.65;;;27.05;;
20381;SDS011;10350;51.280;12.400;2023-12-20T05:28:24;28.92;;;27.13;;
20381;SDS011;10350;51.280;12.400;2023-12-20T05:30:50;28.13;;;26.55;;
20381;SDS011;10350;51.280;12.400;2023-12-20T05:33:16;28.55;;;26.95;;
20381;SDS011;10350;51.280;12.400;2023-12-20T05:35:43;29.52;;;27.83;;
20381;SDS011;10350;51.280;12.400;2023-12-20T05:38:18;26.85;;;25.35;;
20381;SDS011;10350;51.280;12.400;2023-12-20T05:40:44;27.15;;;25.55;;
20381;SDS011;10350;51.280;12.400;2023-12-20T05:43:10;27.75;;;26.08;;
20381;SDS011;10350;51.280;12.400;2023-12-20T05:45:36;27.60;;;26.00;;
20381;SDS011;10350;51.280;12.400;2023-12-20T05:48:02;27.95;;;26.25;;
20381;SDS011;10350;51.280;12.400;2023-12-20T05:50:28;29.55;;;27.75;;
20381;SDS011;10350;51.280;12.400;2023-12-20T05:52:54;28.27;;;26.67;;
20381;SDS011;10350;51.280;12.400;2023-12-20T05:55:20;28.42;;;26.90;;
20381;SDS011;10350;51.280;12.400;2023-12-20T05:57:47;29.15;;;27.45;;
20381;SDS011;10350;51.280;12.400;2023-12-20T06:00:13;28.33;;;26.67;;
20381;SDS011;10350;51.280;12.400;2023-12-20T06:02:40;29.00;;;27.40;;
20381;SDS011;10350;51.280;12.400;2023-12-20T06:05:06;28.85;;;27.27;;
20381;SDS011;10350;51.280;12.400;2023-12-20T06:07:32;30.73;;;28.92;;
20381;SDS011;10350;51.280;12.400;2023-12-20T06:09:58;29.17;;;27.13;;
20381;SDS011;10350;51.280;12.400;2023-12-20T06:12:24;28.13;;;26.63;;
20381;SDS011;10350;51.280;12.400;2023-12-20T06:14:51;31.05;;;29.30;;
20381;SDS011;10350;51.280;12.400;2023-12-20T06:17:17;29.88;;;28.17;;
20381;SDS011;10350;51.280;12.400;2023-12-20T06:19:43;30.40;;;28.60;;
20381;SDS011;10350;51.280;12.400;2023-12-20T06:22:18;29.33;;;27.70;;
20381;SDS011;10350;51.280;12.400;2023-12-20T06:24:45;31.05;;;29.20;;
20381;SDS011;10350;51.280;12.400;2023-12-20T06:27:16;29.65;;;27.95;;
20381;SDS011;10350;51.280;12.400;2023-12-20T06:29:58;29.40;;;27.50;;
20381;SDS011;10350;51.280;12.400;2023-12-20T06:32:24;27.63;;;26.13;;
20381;SDS011;10350;51.280;12.400;2023-12-20T06:34:50;29.48;;;27.73;;
20381;SDS011;10350;51.280;12.400;2023-12-20T06:37:15;28.48;;;26.95;;
20381;SDS011;10350;51.280;12.400;2023-12-20T06:39:41;28.90;;;27.20;;
20381;SDS011;10350;51.280;12.400;2023-12-20T06:42:07;31.83;;;30.02;;
20381;SDS011;10350;51.280;12.400;2023-12-20T06:44:39;29.63;;;27.92;;
20381;SDS011;10350;51.280;12.400;2023-12-20T06:47:05;30.38;;;28.67;;
20381;SDS011;10350;51.280;12.400;2023-12-20T06:49:31;29.00;;;27.30;;
20381;SDS011;10350;51.280;12.400;2023-12-20T06:51:57;30.45;;;28.75;;
20381;SDS011;10350;51.280;12.400;2023-12-20T06:54:23;31.15;;;29.45;;
20381;SDS011;10350;51.280;12.400;2023-12-20T06:56:49;33.90;;;31.90;;
20381;SDS011;10350;51.280;12.400;2023-12-20T06:59:15;29.85;;;28.10;;
20381;SDS011;10350;51.280;12.400;2023-12-20T07:01:41;29.48;;;27.88;;
20381;SDS011;10350;51.280;12.400;2023-12-20T07:04:07;31.58;;;29.48;;
20381;SDS011;10350;51.280;12.400;2023-12-20T07:06:36;29.85;;;28.08;;
20381;SDS011;10350;51.280;12.400;2023-12-20T07:09:03;30.27;;;28.52;;
20381;SDS011;10350;51.280;12.400;2023-12-20T07:11:29;30.27;;;28.38;;
20381;SDS011;10350;51.280;12.400;2023-12-20T07:13:55;28.73;;;27.13;;
20381;SDS011;10350;51.280;12.400;2023-12-20T07:16:21;29.52;;;27.83;;
20381;SDS011;10350;51.280;12.400;2023-12-20T07:18:47;30.23;;;28.23;;
20381;SDS011;10350;51.280;12.400;2023-12-20T07:21:13;29.83;;;28.17;;
20381;SDS011;10350;51.280;12.400;2023-12-20T07:23:39;30.95;;;29.25;;
20381;SDS011;10350;51.280;12.400;2023-12-20T07:26:05;33.28;;;31.48;;
20381;SDS011;10350;51.280;12.400;2023-12-20T07:28:31;32.25;;;30.45;;
20381;SDS011;10350;51.280;12.400;2023-12-20T07:30:57;35.20;;;33.22;;
20381;SDS011;10350;51.280;12.400;2023-12-20T07:33:23;33.33;;;31.42;;
20381;SDS011;10350;51.280;12.400;2023-12-20T07:35:49;31.80;;;30.10;;
20381;SDS011;10350;51.280;12.400;2023-12-20T07:38:16;31.75;;;30.05;;
20381;SDS011;10350;51.280;12.400;2023-12-20T07:40:42;30.80;;;29.08;;
20381;SDS011;10350;51.280;12.400;2023-12-20T07:43:08;30.17;;;28.58;;
20381;SDS011;10350;51.280;12.400;2023-12-20T07:45:34;31.35;;;29.65;;
20381;SDS011;10350;51.280;12.400;2023-12-20T07:48:00;29.88;;;28.27;;
20381;SDS011;10350;51.280;12.400;2023-12-20T07:50:26;29.15;;;27.50;;
20381;SDS011;10350;51.280;12.400;2023-12-20T07:52:52;28.70;;;27.13;;
20381;SDS011;10350;51.280;12.400;2023-12-20T07:55:24;29.63;;;27.92;;
20381;SDS011;10350;51.280;12.400;2023-12-20T07:57:50;28.23;;;26.73;;
20381;SDS011;10350;51.280;12.400;2023-12-20T08:00:18;29.35;;;27.75;;
20381;SDS011;10350;51.280;12.400;2023-12-20T08:02:44;29.10;;;27.27;;
20381;SDS011;10350;51.280;12.400;2023-12-20T08:05:11;29.25;;;27.27;;
20381;SDS011;10350;51.280;12.400;2023-12-20T08:07:37;29.63;;;27.85;;
20381;SDS011;10350;51.280;12.400;2023-12-20T08:10:03;31.48;;;29.15;;
20381;SDS011;10350;51.280;12.400;2023-12-20T08:12:29;29.02;;;27.08;;
20381;SDS011;10350;51.280;12.400;2023-12-20T08:14:55;29.10;;;27.35;;
20381;SDS011;10350;51.280;12.400;2023-12-20T08:17:22;29.33;;;27.60;;
20381;SDS011;10350;51.280;12.400;2023-12-20T08:19:48;29.92;;;28.33;;
20381;SDS011;10350;51.280;12.400;2023-12-20T08:22:14;28.75;;;27.25;;
20381;SDS011;10350;51.280;12.400;2023-12-20T08:24:40;29.75;;;27.95;;
20381;SDS011;10350;51.280;12.400;2023-12-20T08:27:06;31.27;;;29.23;;
20381;SDS011;10350;51.280;12.400;2023-12-20T08:29:34;30.15;;;28.08;;
20381;SDS011;10350;51.280;12.400;2023-12-20T08:32:00;30.13;;;28.55;;
20381;SDS011;10350;51.280;12.400;2023-12-20T08:34:26;30.15;;;28.55;;
20381;SDS011;10350;51.280;12.400;2023-12-20T08:36:53;32.05;;;30.35;;
20381;SDS011;10350;51.280;12.400;2023-12-20T08:39:22;30.05;;;28.13;;
20381;SDS011;10350;51.280;12.400;2023-12-20T08:44:16;29.38;;;27.83;;
20381;SDS011;10350;51.280;12.400;2023-12-20T08:46:42;31.83;;;30.02;;
20381;SDS011;10350;51.280;12.400;2023-12-20T08:49:08;32.08;;;29.98;;
20381;SDS011;10350;51.280;12.400;2023-12-20T08:51:34;32.85;;;30.73;;
20381;SDS011;10350;51.280;12.400;2023-12-20T08:54:00;31.92;;;30.20;;
20381;SDS011;10350;51.280;12.400;2023-12-20T08:56:26;36.72;;;34.60;;
20381;SDS011;10350;51.280;12.400;2023-12-20T08:58:52;35.10;;;33.25;;
20381;SDS011;10350;51.280;12.400;2023-12-20T09:01:18;38.25;;;35.78;;
20381;SDS011;10350;51.280;12.400;2023-12-20T09:03:45;37.85;;;35.72;;
20381;SDS011;10350;51.280;12.400;2023-12-20T09:06:12;41.55;;;38.88;;
20381;SDS011;10350;51.280;12.400;2023-12-20T09:08:41;39.40;;;37.17;;
20381;SDS011;10350;51.280;12.400;2023-12-20T09:11:07;41.67;;;39.38;;
20381;SDS011;10350;51.280;12.400;2023-12-20T09:13:35;45.25;;;42.80;;
20381;SDS011;10350;51.280;12.400;2023-12-20T09:16:09;47.08;;;44.10;;
20381;SDS011;10350;51.280;12.400;2023-12-20T09:18:35;47.03;;;44.45;;
20381;SDS011;10350;51.280;12.400;2023-12-20T09:21:01;51.13;;;48.30;;
20381;SDS011;10350;51.280;12.400;2023-12-20T09:23:27;49.45;;;46.38;;
20381;SDS011;10350;51.280;12.400;2023-12-20T09:25:53;43.85;;;41.33;;
20381;SDS011;10350;51.280;12.400;2023-12-20T09:28:19;41.22;;;38.92;;
20381;SDS011;10350;51.280;12.400;2023-12-20T09:30:48;40.28;;;37.92;;
20381;SDS011;10350;51.280;12.400;2023-12-20T09:33:14;40.60;;;38.35;;
20381;SDS011;10350;51.280;12.400;2023-12-20T09:35:41;41.58;;;39.03;;
20381;SDS011;10350;51.280;12.400;2023-12-20T09:38:07;43.10;;;40.58;;
20381;SDS011;10350;51.280;12.400;2023-12-20T09:40:33;43.20;;;40.78;;
20381;SDS011;10350;51.280;12.400;2023-12-20T09:43:15;47.67;;;44.67;;
20381;SDS011;10350;51.280;12.400;2023-12-20T09:45:46;48.22;;;45.15;;
20381;SDS011;10350;51.280;12.400;2023-12-20T09:48:12;50.08;;;46.97;;
20381;SDS011;10350;51.280;12.400;2023-12-20T09:50:41;43.72;;;40.88;;
20381;SDS011;10350;51.280;12.400;2023-12-20T09:53:08;41.30;;;38.60;;
20381;SDS011;10350;51.280;12.400;2023-12-20T09:55:38;37.10;;;34.83;;
20381;SDS011;10350;51.280;12.400;2023-12-20T09:58:05;37.60;;;35.28;;
20381;SDS011;10350;51.280;12.400;2023-12-20T10:00:33;37.53;;;35.42;;
20381;SDS011;10350;51.280;12.400;2023-12-20T10:02:59;39.42;;;37.03;;
20381;SDS011;10350;51.280;12.400;2023-12-20T10:05:29;40.10;;;37.42;;
20381;SDS011;10350;51.280;12.400;2023-12-20T10:07:55;37.33;;;34.92;;
20381;SDS011;10350;51.280;12.400;2023-12-20T10:10:21;41.50;;;39.10;;
20381;SDS011;10350;51.280;12.400;2023-12-20T10:13:03;36.90;;;34.72;;
20381;SDS011;10350;51.280;12.400;2023-12-20T10:15:29;34.28;;;32.20;;
20381;SDS011;10350;51.280;12.400;2023-12-20T10:17:56;37.40;;;35.25;;
20381;SDS011;10350;51.280;12.400;2023-12-20T10:20:22;35.63;;;33.53;;
20381;SDS011;10350;51.280;12.400;2023-12-20T10:22:48;37.83;;;35.58;;
20381;SDS011;10350;51.280;12.400;2023-12-20T10:25:14;37.08;;;34.83;;
20381;SDS011;10350;51.280;12.400;2023-12-20T10:27:40;34.35;;;32.25;;
20381;SDS011;10350;51.280;12.400;2023-12-20T10:30:06;35.78;;;33.53;;
20381;SDS011;10350;51.280;12.400;2023-12-20T10:32:32;34.92;;;33.13;;
20381;SDS011;10350;51.280;12.400;2023-12-20T10:34:58;34.88;;;32.97;;
20381;SDS011;10350;51.280;12.400;2023-12-20T10:37:24;34.92;;;32.65;;
20381;SDS011;10350;51.280;12.400;2023-12-20T10:39:51;32.85;;;30.88;;
20381;SDS011;10350;51.280;12.400;2023-12-20T10:42:21;34.67;;;32.40;;
20381;SDS011;10350;51.280;12.400;2023-12-20T10:44:47;31.17;;;29.38;;
20381;SDS011;10350;51.280;12.400;2023-12-20T10:47:14;32.60;;;30.70;;
20381;SDS011;10350;51.280;12.400;2023-12-20T10:49:40;30.00;;;28.15;;
20381;SDS011;10350;51.280;12.400;2023-12-20T10:52:06;29.35;;;27.75;;
20381;SDS011;10350;51.280;12.400;2023-12-20T10:54:33;29.60;;;28.05;;
20381;SDS011;10350;51.280;12.400;2023-12-20T10:56:59;30.95;;;29.20;;
20381;SDS011;10350;51.280;12.400;2023-12-20T10:59:25;32.13;;;30.42;;
20381;SDS011;10350;51.280;12.400;2023-12-20T11:01:53;30.67;;;28.83;;
20381;SDS011;10350;51.280;12.400;2023-12-20T11:04:23;31.15;;;29.45;;
20381;SDS011;10350;51.280;12.400;2023-12-20T11:06:53;30.25;;;28.35;;
20381;SDS011;10350;51.280;12.400;2023-12-20T11:09:22;30.38;;;28.02;;
20381;SDS011;10350;51.280;12.400;2023-12-20T11:14:17;29.70;;;28.00;;
20381;SDS011;10350;51.280;12.400;2023-12-20T11:16:44;29.92;;;28.17;;
20381;SDS011;10350;51.280;12.400;2023-12-20T11:19:11;29.98;;;28.27;;
20381;SDS011;10350;51.280;12.400;2023-12-20T11:21:39;31.35;;;28.40;;
20381;SDS011;10350;51.280;12.400;2023-12-20T11:24:05;28.60;;;26.92;;
20381;SDS011;10350;51.280;12.400;2023-12-20T11:26:31;29.95;;;28.15;;
20381;SDS011;10350;51.280;12.400;2023-12-20T11:31:42;27.13;;;25.52;;
20381;SDS011;10350;51.280;12.400;2023-12-20T11:34:14;30.15;;;28.33;;
20381;SDS011;10350;51.280;12.400;2023-12-20T11:36:40;31.10;;;29.27;;
20381;SDS011;10350;51.280;12.400;2023-12-20T11:39:06;28.00;;;26.45;;
20381;SDS011;10350;51.280;12.400;2023-12-20T11:41:35;27.33;;;25.58;;
20381;SDS011;10350;51.280;12.400;2023-12-20T11:44:04;28.88;;;27.15;;
20381;SDS011;10350;51.280;12.400;2023-12-20T11:46:31;27.88;;;26.27;;
20381;SDS011;10350;51.280;12.400;2023-12-20T11:48:59;28.75;;;26.92;;
20381;SDS011;10350;51.280;12.400;2023-12-20T11:51:26;27.60;;;26.10;;
20381;SDS011;10350;51.280;12.400;2023-12-20T11:54:08;28.60;;;26.90;;
20381;SDS011;10350;51.280;12.400;2023-12-20T11:56:36;30.02;;;28.08;;
20381;SDS011;10350;51.280;12.400;2023-12-20T11:59:02;27.15;;;25.33;;
20381;SDS011;10350;51.280;12.400;2023-12-20T12:01:28;27.17;;;25.77;;
20381;SDS011;10350;51.280;12.400;2023-12-20T12:04:04;29.77;;;27.98;;
20381;SDS011;10350;51.280;12.400;2023-12-20T12:06:31;28.50;;;26.92;;
20381;SDS011;10350;51.280;12.400;2023-12-20T12:08:57;26.25;;;24.85;;
20381;SDS011;10350;51.280;12.400;2023-12-20T12:11:23;28.90;;;27.13;;
20381;SDS011;10350;51.280;12.400;2023-12-20T12:13:49;29.40;;;27.75;;
20381;SDS011;10350;51.280;12.400;2023-12-20T12:16:22;27.65;;;25.98;;
20381;SDS011;10350;51.280;12.400;2023-12-20T12:18:57;27.60;;;26.08;;
20381;SDS011;10350;51.280;12.400;2023-12-20T12:21:24;27.75;;;26.17;;
20381;SDS011;10350;51.280;12.400;2023-12-20T12:23:50;29.08;;;27.55;;
20381;SDS011;10350;51.280;12.400;2023-12-20T12:26:16;29.05;;;27.55;;
20381;SDS011;10350;51.280;12.400;2023-12-20T12:28:42;28.40;;;26.50;;
20381;SDS011;10350;51.280;12.400;2023-12-20T12:31:14;26.25;;;24.85;;
20381;SDS011;10350;51.280;12.400;2023-12-20T12:33:40;29.90;;;28.23;;
20381;SDS011;10350;51.280;12.400;2023-12-20T12:36:07;29.27;;;27.58;;
20381;SDS011;10350;51.280;12.400;2023-12-20T12:38:33;28.00;;;26.52;;
20381;SDS011;10350;51.280;12.400;2023-12-20T12:40:59;27.88;;;26.20;;
20381;SDS011;10350;51.280;12.400;2023-12-20T12:43:25;29.40;;;27.38;;
20381;SDS011;10350;51.280;12.400;2023-12-20T12:45:53;25.92;;;24.45;;
20381;SDS011;10350;51.280;12.400;2023-12-20T12:48:20;27.80;;;26.27;;
20381;SDS011;10350;51.280;12.400;2023-12-20T12:50:46;29.65;;;27.95;;
20381;SDS011;10350;51.280;12.400;2023-12-20T12:53:12;27.27;;;25.88;;
20381;SDS011;10350;51.280;12.400;2023-12-20T12:55:38;28.52;;;27.02;;
20381;SDS011;10350;51.280;12.400;2023-12-20T12:58:04;27.25;;;25.75;;
20381;SDS011;10350;51.280;12.400;2023-12-20T13:00:30;29.15;;;27.45;;
20381;SDS011;10350;51.280;12.400;2023-12-20T13:02:56;27.85;;;26.00;;
20381;SDS011;10350;51.280;12.400;2023-12-20T13:05:22;28.75;;;27.23;;
20381;SDS011;10350;51.280;12.400;2023-12-20T13:07:48;28.05;;;26.35;;
20381;SDS011;10350;51.280;12.400;2023-12-20T13:10:14;27.88;;;26.17;;
20381;SDS011;10350;51.280;12.400;2023-12-20T13:12:43;27.98;;;26.35;;
20381;SDS011;10350;51.280;12.400;2023-12-20T13:15:09;27.35;;;25.95;;
20381;SDS011;10350;51.280;12.400;2023-12-20T13:17:35;26.80;;;25.40;;
20381;SDS011;10350;51.280;12.400;2023-12-20T13:20:02;28.17;;;26.55;;
20381;SDS011;10350;51.280;12.400;2023-12-20T13:22:28;28.35;;;26.75;;
20381;SDS011;10350;51.280;12.400;2023-12-20T13:24:55;26.48;;;25.00;;
20381;SDS011;10350;51.280;12.400;2023-12-20T13:27:24;27.00;;;25.50;;
20381;SDS011;10350;51.280;12.400;2023-12-20T13:29:50;26.90;;;25.50;;
20381;SDS011;10350;51.280;12.400;2023-12-20T13:32:16;28.02;;;26.52;;
20381;SDS011;10350;51.280;12.400;2023-12-20T13:37:13;27.13;;;25.63;;
20381;SDS011;10350;51.280;12.400;2023-12-20T13:39:43;27.70;;;26.23;;
20381;SDS011;10350;51.280;12.400;2023-12-20T13:42:09;26.33;;;25.00;;
20381;SDS011;10350;51.280;12.400;2023-12-20T13:44:34;28.48;;;26.98;;
20381;SDS011;10350;51.280;12.400;2023-12-20T13:47:00;29.63;;;28.02;;
20381;SDS011;10350;51.280;12.400;2023-12-20T13:49:27;25.73;;;24.33;;
20381;SDS011;10350;51.280;12.400;2023-12-20T13:51:53;27.33;;;25.73;;
20381;SDS011;10350;51.280;12.400;2023-12-20T13:54:21;29.15;;;27.48;;
20381;SDS011;10350;51.280;12.400;2023-12-20T13:56:47;27.90;;;26.33;;
20381;SDS011;10350;51.280;12.400;2023-12-20T13:59:13;29.58;;;27.98;;
20381;SDS011;10350;51.280;12.400;2023-12-20T14:01:40;27.50;;;25.90;;
20381;SDS011;10350;51.280;12.400;2023-12-20T14:04:06;26.52;;;25.20;;
20381;SDS011;10350;51.280;12.400;2023-12-20T14:06:32;28.85;;;27.35;;
20381;SDS011;10350;51.280;12.400;2023-12-20T14:08:58;27.25;;;25.85;;
20381;SDS011;10350;51.280;12.400;2023-12-20T14:11:28;27.55;;;25.52;;
20381;SDS011;10350;51.280;12.400;2023-12-20T14:13:54;26.27;;;24.88;;
20381;SDS011;10350;51.280;12.400;2023-12-20T14:16:23;26.55;;;25.17;;